createdAt,value
2022-11-28T00:00:31.529Z,7.4
2022-11-28T00:01:40.786Z,7.5
2022-11-28T00:02:49.889Z,7.4
2022-11-28T00:03:59.048Z,7.5
2022-11-28T00:05:08.216Z,7.5
2022-11-28T00:06:16.421Z,7.6
2022-11-28T00:07:24.611Z,7.6
2022-11-28T00:08:33.781Z,7.5
2022-11-28T00:09:42.943Z,7.6
2022-11-28T00:10:52.132Z,7.4
2022-11-28T00:12:00.316Z,7.5
2022-11-28T00:13:09.487Z,7.5
2022-11-28T00:14:18.668Z,7.6
2022-11-28T00:15:27.834Z,7.7
2022-11-28T00:16:36.999Z,7.7
2022-11-28T00:17:46.180Z,7.7
2022-11-28T00:18:55.365Z,7.6
2022-11-28T00:20:04.632Z,7.7
2022-11-28T00:21:13.696Z,7.8
2022-11-28T00:22:22.871Z,7.7
2022-11-28T00:23:31.069Z,7.6
2022-11-28T00:24:40.259Z,7.7
2022-11-28T00:25:49.405Z,7.7
2022-11-28T00:28:07.748Z,7.7
2022-11-28T00:29:16.920Z,7.7
2022-11-28T00:30:25.112Z,7.7
2022-11-28T00:31:34.285Z,7.7
2022-11-28T00:32:43.461Z,7.8
2022-11-28T00:33:52.658Z,7.8
2022-11-28T00:35:01.853Z,7.7
2022-11-28T00:36:10.968Z,7.7
2022-11-28T00:37:20.146Z,7.8
2022-11-28T00:38:29.324Z,7.8
2022-11-28T00:39:38.490Z,7.8
2022-11-28T00:40:47.653Z,7.9
2022-11-28T00:41:56.835Z,7.9
2022-11-28T00:43:06.011Z,7.9
2022-11-28T00:44:15.195Z,8
2022-11-28T00:45:24.352Z,7.9
2022-11-28T00:46:33.518Z,8
2022-11-28T00:47:42.724Z,8
2022-11-28T00:48:50.895Z,8
2022-11-28T00:50:00.142Z,7.9
2022-11-28T00:51:08.254Z,8
2022-11-28T00:52:17.428Z,8.1
2022-11-28T00:53:26.601Z,8
2022-11-28T00:54:35.833Z,8.1
2022-11-28T00:55:44.935Z,8.1
2022-11-28T00:56:54.116Z,8
2022-11-28T00:58:03.339Z,8.1
2022-11-28T00:59:11.484Z,8
2022-11-28T01:00:20.657Z,8
2022-11-28T01:01:29.842Z,8
2022-11-28T01:02:39.010Z,8
2022-11-28T01:03:47.187Z,8
2022-11-28T01:04:56.376Z,7.9
2022-11-28T01:06:05.535Z,8
2022-11-28T01:07:14.708Z,8
2022-11-28T01:08:23.888Z,7.9
2022-11-28T01:09:33.063Z,8
2022-11-28T01:10:42.225Z,8
2022-11-28T01:11:51.412Z,8
2022-11-28T01:13:00.564Z,8
2022-11-28T01:14:09.744Z,8
2022-11-28T01:15:18.937Z,8
2022-11-28T01:16:28.094Z,8
2022-11-28T01:17:37.302Z,8
2022-11-28T01:18:46.431Z,7.9
2022-11-28T01:19:55.619Z,7.9
2022-11-28T01:21:04.777Z,8
2022-11-28T01:22:13.948Z,7.9
2022-11-28T01:23:23.125Z,7.9
2022-11-28T01:24:32.295Z,7.9
2022-11-28T01:25:40.496Z,8
2022-11-28T01:26:49.707Z,8
2022-11-28T01:27:58.895Z,8.1
2022-11-28T01:29:08.014Z,8.1
2022-11-28T01:30:17.336Z,8
2022-11-28T01:31:26.372Z,7.9
2022-11-28T01:32:35.523Z,7.9
2022-11-28T01:33:43.730Z,7.8
2022-11-28T01:34:52.899Z,7.8
2022-11-28T01:36:02.113Z,7.8
2022-11-28T01:37:11.232Z,7.8
2022-11-28T01:38:20.404Z,7.9
2022-11-28T01:39:29.670Z,7.8
2022-11-28T01:40:38.752Z,7.9
2022-11-28T01:41:46.955Z,7.8
2022-11-28T01:42:56.121Z,7.7
2022-11-28T01:44:05.309Z,7.7
2022-11-28T01:45:14.479Z,7.7
2022-11-28T01:46:23.647Z,7.7
2022-11-28T01:47:32.820Z,7.7
2022-11-28T01:48:41.986Z,7.8
2022-11-28T01:49:51.165Z,7.7
2022-11-28T01:51:00.333Z,7.7
2022-11-28T01:52:09.511Z,7.8
2022-11-28T01:53:18.674Z,7.8
2022-11-28T01:54:27.861Z,7.7
2022-11-28T01:55:37.014Z,7.7
2022-11-28T01:56:46.204Z,7.8
2022-11-28T01:57:55.368Z,7.8
2022-11-28T01:59:03.554Z,7.8
2022-11-28T02:00:12.729Z,7.8
2022-11-28T02:01:21.913Z,7.8
2022-11-28T02:02:31.075Z,7.8
2022-11-28T02:03:40.245Z,7.8
2022-11-28T02:04:49.473Z,7.8
2022-11-28T02:05:58.602Z,7.8
2022-11-28T02:07:07.819Z,7.8
2022-11-28T02:08:16.950Z,7.9
2022-11-28T02:09:26.181Z,7.8
2022-11-28T02:10:35.277Z,7.8
2022-11-28T02:11:43.482Z,7.8
2022-11-28T02:12:51.660Z,7.7
2022-11-28T02:14:00.835Z,7.7
2022-11-28T02:15:10.017Z,7.7
2022-11-28T02:16:19.190Z,7.6
2022-11-28T02:17:28.365Z,7.6
2022-11-28T02:18:37.548Z,7.6
2022-11-28T02:19:46.698Z,7.6
2022-11-28T02:20:55.954Z,7.7
2022-11-28T02:22:04.065Z,7.6
2022-11-28T02:23:13.256Z,7.6
2022-11-28T02:24:22.415Z,7.5
2022-11-28T02:25:31.600Z,7.6
2022-11-28T02:26:40.764Z,7.5
2022-11-28T02:27:49.935Z,7.5
2022-11-28T02:28:59.192Z,7.5
2022-11-28T02:30:08.303Z,7.5
2022-11-28T02:31:17.456Z,7.5
2022-11-28T02:32:25.645Z,7.5
2022-11-28T02:33:34.827Z,7.4
2022-11-28T02:34:43.979Z,7.4
2022-11-28T02:35:53.239Z,7.4
2022-11-28T02:37:02.325Z,7.4
2022-11-28T02:38:11.509Z,7.3
2022-11-28T02:39:20.725Z,7.4
2022-11-28T02:40:29.882Z,7.4
2022-11-28T02:41:39.017Z,7.3
2022-11-28T02:42:48.253Z,7.4
2022-11-28T02:43:57.366Z,7.3
2022-11-28T02:45:06.609Z,7.4
2022-11-28T02:46:15.716Z,7.3
2022-11-28T02:47:24.897Z,7.3
2022-11-28T02:48:34.054Z,7.2
2022-11-28T02:49:42.311Z,7.3
2022-11-28T02:50:50.445Z,7.3
2022-11-28T02:51:59.614Z,7.2
2022-11-28T02:53:08.811Z,7.2
2022-11-28T02:54:18.005Z,7.3
2022-11-28T02:55:27.137Z,7.3
2022-11-28T02:57:45.476Z,7.2
2022-11-28T02:58:54.652Z,7.2
2022-11-28T03:00:03.814Z,7.2
2022-11-28T03:01:12.993Z,7.3
2022-11-28T03:02:22.169Z,7.3
2022-11-28T03:03:31.385Z,7.2
2022-11-28T03:04:40.509Z,7.3
2022-11-28T03:05:49.696Z,7.3
2022-11-28T03:06:58.857Z,7.4
2022-11-28T03:08:08.090Z,7.4
2022-11-28T03:09:17.247Z,7.2
2022-11-28T03:10:25.395Z,7.2
2022-11-28T03:11:34.618Z,7.2
2022-11-28T03:12:43.733Z,7.2
2022-11-28T03:13:52.912Z,7.3
2022-11-28T03:15:02.099Z,7.3
2022-11-28T03:16:11.265Z,7.3
2022-11-28T03:17:19.460Z,7.3
2022-11-28T03:18:28.650Z,7.3
2022-11-28T03:19:37.788Z,7.4
2022-11-28T03:20:46.997Z,7.2
2022-11-28T03:21:56.148Z,7.3
2022-11-28T03:23:05.347Z,7.3
2022-11-28T03:24:14.508Z,7.4
2022-11-28T03:25:23.672Z,7.3
2022-11-28T03:26:33.023Z,7.3
2022-11-28T03:27:42.023Z,7.3
2022-11-28T03:28:51.189Z,7.3
2022-11-28T03:30:00.363Z,7.2
2022-11-28T03:31:09.538Z,7.3
2022-11-28T03:32:18.717Z,7.4
2022-11-28T03:33:27.884Z,7.4
2022-11-28T03:34:37.082Z,7.4
2022-11-28T03:35:45.273Z,7.4
2022-11-28T03:36:54.422Z,7.4
2022-11-28T03:38:03.642Z,7.4
2022-11-28T03:39:12.772Z,7.5
2022-11-28T03:40:21.934Z,7.4
2022-11-28T03:41:31.110Z,7.5
2022-11-28T03:42:40.289Z,7.6
2022-11-28T03:43:49.477Z,7.4
2022-11-28T03:44:58.627Z,7.3
2022-11-28T03:46:07.803Z,7.3
2022-11-28T03:47:16.975Z,7.4
2022-11-28T03:48:26.159Z,7.3
2022-11-28T03:49:35.332Z,7.5
2022-11-28T03:50:44.489Z,7.6
2022-11-28T03:51:53.665Z,7.6
2022-11-28T03:53:02.826Z,7.5
2022-11-28T03:54:12.011Z,7.5
2022-11-28T03:55:21.179Z,7.3
2022-11-28T03:56:30.377Z,7.3
2022-11-28T03:57:39.541Z,7.4
2022-11-28T03:58:48.704Z,7.4
2022-11-28T03:59:57.885Z,7.5
2022-11-28T04:01:07.059Z,7.3
2022-11-28T04:02:16.223Z,7.2
2022-11-28T04:03:24.413Z,7.2
2022-11-28T04:04:33.628Z,7.2
2022-11-28T04:05:42.756Z,7.2
2022-11-28T04:06:51.930Z,7.3
2022-11-28T04:08:01.091Z,7.3
2022-11-28T04:09:10.287Z,7.3
2022-11-28T04:10:19.443Z,7.3
2022-11-28T04:11:28.626Z,7.4
2022-11-28T04:12:37.797Z,7.2
2022-11-28T04:13:46.962Z,7.2
2022-11-28T04:14:56.125Z,7.2
2022-11-28T04:16:05.309Z,7.2
2022-11-28T04:17:14.470Z,7.3
2022-11-28T04:18:23.659Z,7.4
2022-11-28T04:19:32.846Z,7.3
2022-11-28T04:20:41.992Z,7.3
2022-11-28T04:21:50.186Z,7.4
2022-11-28T04:22:59.358Z,7.4
2022-11-28T04:24:08.531Z,7.3
2022-11-28T04:25:17.694Z,7.3
2022-11-28T04:26:26.881Z,7.4
2022-11-28T04:27:35.065Z,7.5
2022-11-28T04:28:44.245Z,7.5
2022-11-28T04:29:52.437Z,7.4
2022-11-28T04:31:00.753Z,7.4
2022-11-28T04:32:09.820Z,7.4
2022-11-28T04:33:18.971Z,7.5
2022-11-28T04:34:28.140Z,7.4
2022-11-28T04:35:37.315Z,7.3
2022-11-28T04:36:46.483Z,7.3
2022-11-28T04:37:55.721Z,7.2
2022-11-28T04:39:04.840Z,7.2
2022-11-28T04:40:13.045Z,7.2
2022-11-28T04:41:22.240Z,7.1
2022-11-28T04:42:31.386Z,7.2
2022-11-28T04:43:40.555Z,7.3
2022-11-28T04:44:48.733Z,7.2
2022-11-28T04:45:57.901Z,7.4
2022-11-28T04:47:07.087Z,7.3
2022-11-28T04:48:16.250Z,7.4
2022-11-28T04:49:25.415Z,7.3
2022-11-28T04:50:34.613Z,7.3
2022-11-28T04:51:43.763Z,7.2
2022-11-28T04:52:52.960Z,7.2
2022-11-28T04:54:02.114Z,7.1
2022-11-28T04:55:11.336Z,7.1
2022-11-28T04:56:20.575Z,7.2
2022-11-28T04:57:29.695Z,7.2
2022-11-28T04:58:38.805Z,7.2
2022-11-28T04:59:47.972Z,7.5
2022-11-28T05:00:57.151Z,7.4
2022-11-28T05:02:06.373Z,7.3
2022-11-28T05:03:15.494Z,7.2
2022-11-28T05:04:24.661Z,7.2
2022-11-28T05:05:33.931Z,7.2
2022-11-28T05:06:43.063Z,7.3
2022-11-28T05:07:52.186Z,7.2
2022-11-28T05:09:01.360Z,7.1
2022-11-28T05:10:10.533Z,7
2022-11-28T05:11:19.757Z,7.1
2022-11-28T05:12:28.876Z,7.3
2022-11-28T05:13:38.054Z,7.2
2022-11-28T05:14:47.248Z,7.3
2022-11-28T05:15:56.462Z,7.2
2022-11-28T05:17:05.624Z,7.1
2022-11-28T05:18:14.731Z,7.1
2022-11-28T05:19:23.903Z,6.9
2022-11-28T05:20:33.140Z,6.9
2022-11-28T05:21:42.262Z,7
2022-11-28T05:22:51.427Z,7
2022-11-28T05:23:59.647Z,7
2022-11-28T05:25:08.798Z,7
2022-11-28T05:26:17.979Z,7.2
2022-11-28T05:27:27.136Z,7.3
2022-11-28T05:28:36.329Z,7
2022-11-28T05:29:45.477Z,7.1
2022-11-28T05:30:54.663Z,7.1
2022-11-28T05:32:02.861Z,7.1
2022-11-28T05:33:12.016Z,7
2022-11-28T05:34:21.200Z,7
2022-11-28T05:35:30.424Z,7
2022-11-28T05:36:39.531Z,7
2022-11-28T05:37:48.739Z,7
2022-11-28T05:38:57.878Z,7
2022-11-28T05:40:07.051Z,6.9
2022-11-28T05:41:16.219Z,6.9
2022-11-28T05:42:25.403Z,6.8
2022-11-28T05:43:33.594Z,6.9
2022-11-28T05:44:42.761Z,7
2022-11-28T05:45:51.936Z,7
2022-11-28T05:47:01.176Z,6.9
2022-11-28T05:48:10.364Z,7
2022-11-28T05:49:19.509Z,6.9
2022-11-28T05:50:28.645Z,6.9
2022-11-28T05:51:37.858Z,6.8
2022-11-28T05:53:56.139Z,6.9
2022-11-28T05:55:05.318Z,7
2022-11-28T05:56:14.484Z,7
2022-11-28T05:57:23.730Z,7
2022-11-28T05:58:32.837Z,7
2022-11-28T05:59:42.009Z,7
2022-11-28T06:00:51.229Z,7.1
2022-11-28T06:02:00.481Z,7
2022-11-28T06:03:09.534Z,6.9
2022-11-28T06:04:18.694Z,6.9
2022-11-28T06:05:27.871Z,7
2022-11-28T06:06:37.041Z,7
2022-11-28T06:07:46.243Z,7
2022-11-28T06:08:55.392Z,7
2022-11-28T06:10:04.640Z,7
2022-11-28T06:11:13.751Z,6.8
2022-11-28T06:12:22.975Z,6.8
2022-11-28T06:13:31.223Z,6.9
2022-11-28T06:14:40.365Z,6.9
2022-11-28T06:15:49.452Z,6.9
2022-11-28T06:16:58.662Z,6.9
2022-11-28T06:18:07.805Z,6.9
2022-11-28T06:19:17.030Z,6.9
2022-11-28T06:20:25.305Z,6.9
2022-11-28T06:21:34.425Z,6.9
2022-11-28T06:22:43.493Z,6.9
2022-11-28T06:23:52.743Z,6.8
2022-11-28T06:25:01.906Z,7
2022-11-28T06:26:11.027Z,6.9
2022-11-28T06:27:20.228Z,6.8
2022-11-28T06:28:29.392Z,6.9
2022-11-28T06:29:38.563Z,6.9
2022-11-28T06:30:47.773Z,6.9
2022-11-28T06:31:56.943Z,7
2022-11-28T06:33:06.053Z,7
2022-11-28T06:34:15.215Z,6.9
2022-11-28T06:35:23.413Z,6.9
2022-11-28T06:36:31.705Z,6.9
2022-11-28T06:37:40.774Z,7
2022-11-28T06:38:49.954Z,6.9
2022-11-28T06:39:59.130Z,6.9
2022-11-28T06:41:08.323Z,7
2022-11-28T06:42:17.491Z,7
2022-11-28T06:43:26.622Z,6.9
2022-11-28T06:44:35.856Z,6.9
2022-11-28T06:45:44.975Z,6.9
2022-11-28T06:46:54.176Z,6.9
2022-11-28T06:48:03.327Z,6.9
2022-11-28T06:49:12.492Z,6.9
2022-11-28T06:50:21.703Z,6.9
2022-11-28T06:51:30.863Z,7
2022-11-28T06:52:40.024Z,6.9
2022-11-28T06:53:49.235Z,6.9
2022-11-28T06:54:58.461Z,6.9
2022-11-28T06:56:07.597Z,6.9
2022-11-28T06:57:16.743Z,7
2022-11-28T06:58:25.864Z,6.9
2022-11-28T06:59:35.073Z,6.8
2022-11-28T07:00:44.284Z,6.8
2022-11-28T07:01:53.388Z,7
2022-11-28T07:03:02.582Z,7
2022-11-28T07:04:10.778Z,6.9
2022-11-28T07:05:19.989Z,6.9
2022-11-28T07:06:29.127Z,6.9
2022-11-28T07:07:37.292Z,6.8
2022-11-28T07:08:46.537Z,6.8
2022-11-28T07:09:54.681Z,6.9
2022-11-28T07:11:02.909Z,6.9
2022-11-28T07:12:12.169Z,6.8
2022-11-28T07:13:21.189Z,6.8
2022-11-28T07:14:30.505Z,6.8
2022-11-28T07:15:39.531Z,6.9
2022-11-28T07:16:48.778Z,6.9
2022-11-28T07:17:57.888Z,6.9
2022-11-28T07:19:07.054Z,7
2022-11-28T07:20:16.243Z,7
2022-11-28T07:21:25.408Z,7
2022-11-28T07:22:34.570Z,7
2022-11-28T07:23:43.741Z,7.1
2022-11-28T07:24:52.939Z,7
2022-11-28T07:26:01.224Z,6.9
2022-11-28T07:27:10.399Z,6.8
2022-11-28T07:28:19.562Z,6.8
2022-11-28T07:29:28.610Z,6.9
2022-11-28T07:30:37.850Z,6.7
2022-11-28T07:31:46.988Z,6.8
2022-11-28T07:32:56.187Z,7
2022-11-28T07:34:05.321Z,7.1
2022-11-28T07:35:14.545Z,7.1
2022-11-28T07:36:23.673Z,7.1
2022-11-28T07:37:32.835Z,7.2
2022-11-28T07:38:42.000Z,6.9
2022-11-28T07:39:51.207Z,6.8
2022-11-28T07:40:59.360Z,7.1
2022-11-28T07:42:08.628Z,7.1
2022-11-28T07:43:17.717Z,6.9
2022-11-28T07:44:26.885Z,6.8
2022-11-28T07:45:36.136Z,6.9
2022-11-28T07:46:45.275Z,6.9
2022-11-28T07:47:54.515Z,6.9
2022-11-28T07:49:03.782Z,6.9
2022-11-28T07:50:12.875Z,6.9
2022-11-28T07:51:21.961Z,7
2022-11-28T07:52:31.274Z,7
2022-11-28T07:53:40.371Z,6.9
2022-11-28T07:54:49.600Z,7.3
2022-11-28T07:55:57.782Z,7.3
2022-11-28T07:57:06.902Z,7.1
2022-11-28T07:58:16.139Z,6.9
2022-11-28T07:59:25.347Z,6.8
2022-11-28T08:00:34.535Z,6.9
2022-11-28T08:01:43.690Z,7
2022-11-28T08:02:52.839Z,7.1
2022-11-28T08:04:01.990Z,7.1
2022-11-28T08:05:11.239Z,7
2022-11-28T08:06:20.220Z,7.2
2022-11-28T08:07:29.553Z,7
2022-11-28T08:08:38.698Z,7
2022-11-28T08:09:47.691Z,6.9
2022-11-28T08:10:56.071Z,7.1
2022-11-28T08:12:05.062Z,7
2022-11-28T08:13:14.396Z,6.9
2022-11-28T08:14:23.572Z,7
2022-11-28T08:15:32.573Z,7
2022-11-28T08:16:41.930Z,7
2022-11-28T08:17:51.087Z,7
2022-11-28T08:19:00.331Z,7
2022-11-28T08:20:09.288Z,6.9
2022-11-28T08:21:18.651Z,7
2022-11-28T08:22:27.602Z,6.9
2022-11-28T08:23:36.946Z,7
2022-11-28T08:24:46.089Z,7
2022-11-28T08:25:54.296Z,7.1
2022-11-28T08:27:03.538Z,7.2
2022-11-28T08:28:12.661Z,7.2
2022-11-28T08:29:21.814Z,7.2
2022-11-28T08:30:30.986Z,7.2
2022-11-28T08:31:40.191Z,7.2
2022-11-28T08:32:49.338Z,7.1
2022-11-28T08:33:58.542Z,7.2
2022-11-28T08:35:07.700Z,7.3
2022-11-28T08:37:26.073Z,7.1
2022-11-28T08:38:35.291Z,7.2
2022-11-28T08:39:44.383Z,7.1
2022-11-28T08:40:52.550Z,7.2
2022-11-28T08:42:01.768Z,7.1
2022-11-28T08:43:10.926Z,7.2
2022-11-28T08:44:20.101Z,7.3
2022-11-28T08:45:29.247Z,7.4
2022-11-28T08:46:38.437Z,7.4
2022-11-28T08:47:47.604Z,7.3
2022-11-28T08:48:56.777Z,7.3
2022-11-28T08:50:05.952Z,7.3
2022-11-28T08:51:15.118Z,7.3
2022-11-28T08:52:24.287Z,7.2
2022-11-28T08:53:33.524Z,7.3
2022-11-28T08:54:42.459Z,7.3
2022-11-28T08:55:50.850Z,7.4
2022-11-28T08:56:59.991Z,7.4
2022-11-28T08:58:09.152Z,7.4
2022-11-28T08:59:18.354Z,7.4
2022-11-28T09:00:27.571Z,7.3
2022-11-28T09:01:36.763Z,7.3
2022-11-28T09:02:45.852Z,7.3
2022-11-28T09:03:55.095Z,7.4
2022-11-28T09:05:04.171Z,7.4
2022-11-28T09:06:13.204Z,7.4
2022-11-28T09:07:22.629Z,7.5
2022-11-28T09:08:31.675Z,7.6
2022-11-28T09:09:40.891Z,7.7
2022-11-28T09:10:49.113Z,7.5
2022-11-28T09:11:58.279Z,7.5
2022-11-28T09:13:07.438Z,7.4
2022-11-28T09:14:16.612Z,7.4
2022-11-28T09:15:25.790Z,7.5
2022-11-28T09:16:35.007Z,7.4
2022-11-28T09:17:43.948Z,7.4
2022-11-28T09:18:53.338Z,7.4
2022-11-28T09:20:02.400Z,7.3
2022-11-28T09:21:11.689Z,7.4
2022-11-28T09:22:20.641Z,7.4
2022-11-28T09:23:29.914Z,7.4
2022-11-28T09:24:38.009Z,7.5
2022-11-28T09:25:46.210Z,7.4
2022-11-28T09:26:54.574Z,7.4
2022-11-28T09:28:02.579Z,7.4
2022-11-28T09:29:11.823Z,7.4
2022-11-28T09:30:20.923Z,7.5
2022-11-28T09:31:30.219Z,7.5
2022-11-28T09:32:39.343Z,7.5
2022-11-28T09:33:48.595Z,7.6
2022-11-28T09:34:56.737Z,7.5
2022-11-28T09:36:05.805Z,7.5
2022-11-28T09:37:15.120Z,7.5
2022-11-28T09:38:24.209Z,7.6
2022-11-28T09:39:33.449Z,7.6
2022-11-28T09:40:42.555Z,7.6
2022-11-28T09:41:51.675Z,7.6
2022-11-28T09:43:01.034Z,7.7
2022-11-28T09:44:10.138Z,7.7
2022-11-28T09:45:19.400Z,7.6
2022-11-28T09:46:28.369Z,7.6
2022-11-28T09:47:37.536Z,7.5
2022-11-28T09:48:46.811Z,7.5
2022-11-28T09:49:54.883Z,7.8
2022-11-28T09:51:03.257Z,7.7
2022-11-28T09:52:11.426Z,7.7
2022-11-28T09:53:19.556Z,7.7
2022-11-28T09:54:27.777Z,7.8
2022-11-28T09:55:37.007Z,7.7
2022-11-28T09:56:46.108Z,7.8
2022-11-28T09:57:55.322Z,7.8
2022-11-28T09:59:04.429Z,7.9
2022-11-28T10:00:13.723Z,8.2
2022-11-28T10:01:22.702Z,8.1
2022-11-28T10:02:31.864Z,7.8
2022-11-28T10:03:41.084Z,7.8
2022-11-28T10:04:50.246Z,7.9
2022-11-28T10:05:59.406Z,7.9
2022-11-28T10:07:08.621Z,7.9
2022-11-28T10:08:17.812Z,8
2022-11-28T10:09:26.061Z,8
2022-11-28T10:10:35.093Z,8
2022-11-28T10:11:44.279Z,8
2022-11-28T10:12:53.541Z,8.1
2022-11-28T10:14:02.618Z,8
2022-11-28T10:15:11.794Z,8
2022-11-28T10:16:21.022Z,8.1
2022-11-28T10:17:30.200Z,8.1
2022-11-28T10:18:38.508Z,8.1
2022-11-28T10:19:47.509Z,8.1
2022-11-28T10:20:55.793Z,8
2022-11-28T10:22:04.000Z,8.2
2022-11-28T10:23:12.131Z,8.2
2022-11-28T10:24:21.382Z,8.2
2022-11-28T10:25:30.592Z,8
2022-11-28T10:26:39.772Z,8
2022-11-28T10:27:48.942Z,8
2022-11-28T10:28:58.081Z,8.1
2022-11-28T10:30:07.274Z,8.1
2022-11-28T10:31:16.446Z,8.1
2022-11-28T10:32:25.596Z,8.1
2022-11-28T10:33:34.750Z,8.1
2022-11-28T10:34:43.804Z,8.1
2022-11-28T10:35:53.117Z,8.1
2022-11-28T10:37:02.182Z,8.1
2022-11-28T10:38:10.492Z,8.1
2022-11-28T10:39:19.653Z,8.3
2022-11-28T10:40:28.832Z,8.2
2022-11-28T10:42:47.182Z,8
2022-11-28T10:43:56.332Z,8.1
2022-11-28T10:45:05.454Z,8.2
2022-11-28T10:46:14.693Z,8.1
2022-11-28T10:47:22.882Z,8.1
2022-11-28T10:48:31.029Z,8.2
2022-11-28T10:49:39.244Z,8.2
2022-11-28T10:50:47.307Z,8.2
2022-11-28T10:51:56.601Z,8.2
2022-11-28T10:53:05.780Z,8.2
2022-11-28T10:54:14.939Z,8.5
2022-11-28T10:55:24.144Z,8.5
2022-11-28T10:56:33.305Z,8.4
2022-11-28T10:57:42.462Z,8.3
2022-11-28T10:58:51.622Z,8.3
2022-11-28T11:00:00.895Z,8.4
2022-11-28T11:01:10.082Z,8.6
2022-11-28T11:02:19.144Z,8.4
2022-11-28T11:03:28.204Z,8.3
2022-11-28T11:04:37.483Z,8.3
2022-11-28T11:05:45.713Z,8.3
2022-11-28T11:06:54.731Z,8.3
2022-11-28T11:08:03.903Z,8.3
2022-11-28T11:09:13.093Z,8.4
2022-11-28T11:10:22.346Z,8.4
2022-11-28T11:11:31.578Z,8.4
2022-11-28T11:12:40.607Z,8.4
2022-11-28T11:13:48.919Z,8.3
2022-11-28T11:14:56.999Z,8.3
2022-11-28T11:16:06.146Z,8.3
2022-11-28T11:17:15.374Z,8.4
2022-11-28T11:18:23.529Z,8.3
2022-11-28T11:19:31.700Z,8.4
2022-11-28T11:20:40.888Z,8.4
2022-11-28T11:21:50.055Z,8.4
2022-11-28T11:22:59.298Z,8.4
2022-11-28T11:24:08.507Z,8.4
2022-11-28T11:25:17.666Z,8.5
2022-11-28T11:26:26.827Z,8.4
2022-11-28T11:27:36.076Z,8.5
2022-11-28T11:28:45.241Z,8.4
2022-11-28T11:29:54.393Z,8.4
2022-11-28T11:31:03.613Z,8.4
2022-11-28T11:32:12.654Z,8.5
2022-11-28T11:33:21.881Z,8.5
2022-11-28T11:34:30.087Z,8.5
2022-11-28T11:35:39.289Z,8.5
2022-11-28T11:36:48.490Z,8.5
2022-11-28T11:37:57.490Z,8.5
2022-11-28T11:39:06.695Z,8.5
2022-11-28T11:40:15.931Z,8.5
2022-11-28T11:41:25.011Z,8.6
2022-11-28T11:42:33.303Z,8.4
2022-11-28T11:43:41.418Z,8.4
2022-11-28T11:44:49.763Z,8.4
2022-11-28T11:45:57.774Z,8.4
2022-11-28T11:47:07.025Z,8.4
2022-11-28T11:48:16.226Z,8.4
2022-11-28T11:49:25.341Z,8.4
2022-11-28T11:50:34.456Z,8.3
2022-11-28T11:51:43.632Z,8.4
2022-11-28T11:52:52.914Z,8.5
2022-11-28T11:54:02.103Z,8.6
2022-11-28T11:55:11.299Z,8.5
2022-11-28T11:56:20.468Z,8.5
2022-11-28T11:57:29.580Z,8.5
2022-11-28T11:58:38.795Z,8.6
2022-11-28T11:59:47.849Z,8.6
2022-11-28T12:00:56.202Z,8.6
2022-11-28T12:02:05.314Z,8.5
2022-11-28T12:03:14.379Z,8.5
2022-11-28T12:04:23.735Z,8.5
2022-11-28T12:05:32.813Z,8.4
2022-11-28T12:06:41.895Z,8.4
2022-11-28T12:07:51.190Z,8.5
2022-11-28T12:08:59.445Z,8.5
2022-11-28T12:10:07.458Z,8.5
2022-11-28T12:11:16.675Z,8.5
2022-11-28T12:12:24.998Z,8.4
2022-11-28T12:13:33.239Z,8.4
2022-11-28T12:14:42.172Z,8.4
2022-11-28T12:15:51.385Z,8.5
2022-11-28T12:17:00.534Z,8.4
2022-11-28T12:18:09.871Z,8.5
2022-11-28T12:19:19.002Z,8.5
2022-11-28T12:20:28.094Z,8.4
2022-11-28T12:21:37.409Z,8.5
2022-11-28T12:22:46.559Z,8.5
2022-11-28T12:23:55.610Z,8.4
2022-11-28T12:25:04.906Z,8.5
2022-11-28T12:26:14.094Z,8.4
2022-11-28T12:27:23.151Z,8.5
2022-11-28T12:28:31.269Z,8.6
2022-11-28T12:29:40.652Z,8.4
2022-11-28T12:30:49.741Z,8.6
2022-11-28T12:31:58.781Z,8.6
2022-11-28T12:33:08.096Z,8.6
2022-11-28T12:34:17.329Z,8.6
2022-11-28T12:35:26.393Z,8.6
2022-11-28T12:36:35.550Z,8.6
2022-11-28T12:37:44.687Z,8.4
2022-11-28T12:38:53.996Z,8.5
2022-11-28T12:40:03.059Z,8.5
2022-11-28T12:41:11.197Z,8.6
2022-11-28T12:42:19.617Z,8.4
2022-11-28T12:43:28.603Z,8.5
2022-11-28T12:44:37.720Z,8.4
2022-11-28T12:45:47.128Z,8.4
2022-11-28T12:46:56.225Z,8.5
2022-11-28T12:48:05.334Z,8.6
2022-11-28T12:49:14.416Z,8.6
2022-11-28T12:50:23.589Z,8.5
2022-11-28T12:51:32.761Z,8.5
2022-11-28T12:52:41.942Z,8.5
2022-11-28T12:53:51.099Z,8.6
2022-11-28T12:55:00.531Z,8.5
2022-11-28T12:56:09.531Z,8.5
2022-11-28T12:57:17.844Z,8.4
2022-11-28T12:58:27.027Z,8.5
2022-11-28T12:59:36.140Z,8.5
2022-11-28T13:00:45.319Z,8.5
2022-11-28T13:01:54.418Z,8.4
2022-11-28T13:03:03.536Z,8.4
2022-11-28T13:04:12.859Z,8.4
2022-11-28T13:05:21.032Z,8.5
2022-11-28T13:06:29.187Z,8.5
2022-11-28T13:07:37.401Z,8.5
2022-11-28T13:08:45.533Z,8.5
2022-11-28T13:09:54.746Z,8.6
2022-11-28T13:11:03.069Z,8.6
2022-11-28T13:12:11.127Z,8.7
2022-11-28T13:13:20.157Z,8.6
2022-11-28T13:14:29.445Z,8.6
2022-11-28T13:15:38.607Z,8.5
2022-11-28T13:16:47.698Z,8.5
2022-11-28T13:17:57.007Z,8.5
2022-11-28T13:19:06.110Z,8.5
2022-11-28T13:20:15.194Z,8.5
2022-11-28T13:21:24.635Z,8.5
2022-11-28T13:22:33.703Z,8.5
2022-11-28T13:23:42.726Z,8.5
2022-11-28T13:24:51.933Z,8.5
2022-11-28T13:26:00.187Z,8.4
2022-11-28T13:27:09.265Z,8.6
2022-11-28T13:28:18.437Z,8.7
2022-11-28T13:29:27.661Z,8.4
2022-11-28T13:30:36.775Z,8.3
2022-11-28T13:31:45.952Z,8.3
2022-11-28T13:32:55.240Z,8.4
2022-11-28T13:34:04.370Z,8.4
2022-11-28T13:35:12.500Z,8.3
2022-11-28T13:36:20.875Z,8.4
2022-11-28T13:37:30.005Z,8.6
2022-11-28T13:38:38.054Z,8.6
2022-11-28T13:39:46.302Z,8.5
2022-11-28T13:40:55.404Z,8.5
2022-11-28T13:42:04.598Z,8.5
2022-11-28T13:43:13.928Z,8.4
2022-11-28T13:44:23.149Z,8.4
2022-11-28T13:45:32.144Z,8.4
2022-11-28T13:46:41.332Z,8.4
2022-11-28T13:47:50.568Z,8.4
2022-11-28T13:48:59.724Z,8.5
2022-11-28T13:50:08.779Z,8.5
2022-11-28T13:51:18.123Z,8.3
2022-11-28T13:52:27.137Z,8.4
2022-11-28T13:53:36.373Z,8.4
2022-11-28T13:54:44.657Z,8.4
2022-11-28T13:55:53.753Z,8.4
2022-11-28T13:57:02.841Z,8.5
2022-11-28T13:58:12.029Z,8.4
2022-11-28T13:59:21.220Z,8.5
2022-11-28T14:00:30.353Z,8.3
2022-11-28T14:01:39.577Z,8.4
2022-11-28T14:02:47.780Z,8.5
2022-11-28T14:03:55.922Z,8.4
2022-11-28T14:05:05.238Z,8.5
2022-11-28T14:06:13.293Z,8.6
2022-11-28T14:07:21.465Z,8.4
2022-11-28T14:08:30.772Z,8.5
2022-11-28T14:09:39.815Z,8.4
2022-11-28T14:10:49.012Z,8.5
2022-11-28T14:11:58.325Z,8.6
2022-11-28T14:13:07.375Z,8.5
2022-11-28T14:14:16.684Z,8.3
2022-11-28T14:15:25.891Z,8.4
2022-11-28T14:16:35.014Z,8.4
2022-11-28T14:17:44.200Z,8.4
2022-11-28T14:18:53.201Z,8.4
2022-11-28T14:20:02.370Z,8.4
2022-11-28T14:21:11.779Z,8.4
2022-11-28T14:22:19.732Z,8.5
2022-11-28T14:23:28.901Z,8.6
2022-11-28T14:24:38.256Z,8.5
2022-11-28T14:25:47.385Z,8.4
2022-11-28T14:26:56.484Z,8.4
2022-11-28T14:28:05.763Z,8.4
2022-11-28T14:29:15.004Z,8.3
2022-11-28T14:30:23.100Z,8.4
2022-11-28T14:31:31.144Z,8.4
2022-11-28T14:32:39.420Z,8.4
2022-11-28T14:33:47.527Z,8.5
2022-11-28T14:34:56.887Z,8.8
2022-11-28T14:36:06.056Z,8.7
2022-11-28T14:37:15.058Z,8.7
2022-11-28T14:38:24.222Z,8.6
2022-11-28T14:39:33.395Z,8.6
2022-11-28T14:40:42.569Z,8.5
2022-11-28T14:41:51.747Z,8.5
2022-11-28T14:43:00.914Z,8.6
2022-11-28T14:44:10.262Z,8.5
2022-11-28T14:45:19.323Z,8.6
2022-11-28T14:46:28.436Z,8.6
2022-11-28T14:47:37.696Z,8.6
2022-11-28T14:48:45.791Z,8.5
2022-11-28T14:49:55.196Z,8.6
2022-11-28T14:51:04.151Z,8.7
2022-11-28T14:52:13.525Z,8.7
2022-11-28T14:53:22.640Z,8.7
2022-11-28T14:54:31.790Z,8.7
2022-11-28T14:55:40.971Z,8.7
2022-11-28T14:56:49.025Z,8.8
2022-11-28T14:57:57.216Z,8.7
2022-11-28T14:59:06.387Z,8.6
2022-11-28T15:00:15.571Z,8.5
2022-11-28T15:01:23.766Z,8.5
2022-11-28T15:02:32.079Z,8.5
2022-11-28T15:03:41.166Z,8.5
2022-11-28T15:04:50.467Z,8.5
2022-11-28T15:05:59.598Z,8.5
2022-11-28T15:07:08.694Z,8.5
2022-11-28T15:08:17.970Z,8.5
2022-11-28T15:09:27.008Z,8.4
2022-11-28T15:10:36.190Z,8.4
2022-11-28T15:11:45.486Z,8.4
2022-11-28T15:12:54.643Z,8.4
2022-11-28T15:14:03.683Z,8.4
2022-11-28T15:15:12.854Z,8.4
2022-11-28T15:16:22.015Z,8.4
2022-11-28T15:17:30.279Z,8.5
2022-11-28T15:18:39.470Z,8.4
2022-11-28T15:19:48.731Z,8.4
2022-11-28T15:20:57.760Z,8.4
2022-11-28T15:22:06.894Z,8.3
2022-11-28T15:23:16.087Z,8.3
2022-11-28T15:24:25.244Z,8.4
2022-11-28T15:25:33.440Z,8.4
2022-11-28T15:26:41.634Z,8.4
2022-11-28T15:27:50.792Z,8.6
2022-11-28T15:28:59.012Z,8.5
2022-11-28T15:30:07.188Z,8.5
2022-11-28T15:31:16.356Z,8.2
2022-11-28T15:32:25.522Z,8.4
2022-11-28T15:33:34.694Z,8.4
2022-11-28T15:34:43.867Z,8.3
2022-11-28T15:35:53.073Z,8.3
2022-11-28T15:37:02.214Z,8.3
2022-11-28T15:38:11.386Z,8.2
2022-11-28T15:39:20.561Z,8.2
2022-11-28T15:40:29.740Z,8.2
2022-11-28T15:41:38.899Z,8.2
2022-11-28T15:42:48.093Z,8.3
2022-11-28T15:43:57.246Z,8.3
2022-11-28T15:45:05.436Z,8.3
2022-11-28T15:46:14.609Z,8.4
2022-11-28T15:47:23.794Z,8.4
2022-11-28T15:48:32.959Z,8.4
2022-11-28T15:49:42.129Z,8.4
2022-11-28T15:50:51.301Z,8.3
2022-11-28T15:52:00.480Z,8.1
2022-11-28T15:53:08.675Z,8.2
2022-11-28T15:54:16.856Z,8.3
2022-11-28T15:55:26.026Z,8.4
2022-11-28T15:56:35.191Z,8.3
2022-11-28T15:57:43.397Z,8.2
2022-11-28T15:58:51.587Z,8.3
2022-11-28T16:00:00.773Z,8.3
2022-11-28T16:01:09.927Z,8.2
2022-11-28T16:02:19.114Z,8.3
2022-11-28T16:03:28.295Z,8.4